Create Custom Reports and Graphics: Custom Report

Bell Hill-West

Current Conditions

10/24/20 9:45 PM (-07:00)
Updated Every 15 Minutes
Temp 49.3 °F   1.1
RH 81 %   17
Dew Pt 43.7 °F   5.1
Wet Bulb 46.9 °F   2.0
Wind Dir SSW | 192 °
Wind Spd 2.9 mph   0.2
Wind Gust 4.1 mph   0.3
Solar Rad 0 W/m2   0
BatVolt 12.5 V   0.0

Today & Yesterday

Bell Hill-West

10/24/20 9:45 PM (-07:00)
Updated Every 15 Minutes
Daily Max Temp 72.9 °F   3.6
Time of Max Temp 1453
Daily Min Temp 39.9 °F   0.8
Time of Min Temp 0723
Daily Max Wind 14.8 mph   2.3
Time of Max Wind 1519
Max Wind Dir W | 280 °
Daily Rain 0.00 In
Daily ETo 0.116 in   0.000
Yesterday's Max Temp 76.4 °F
Yesterday’s Min Temp 39.0 °F
Yesterday's Max Wind 12.5 mph
Yesterday's Rainfall 0.00 In
Yesterday's ETo 0.12 In

Last 48 Hours

Bell Hill-West

Hourly Data | America/Los_Angeles
as of 10/24/20 9:45 PM PDT
Date & Time Temp (°F) RH (%) Dew Pt (°F) Wet Bulb (°F) Wind Dir (°) Wind Spd (mph) Wind Gust (mph) Wind Gst Dir (°) Solar Rad (W/m2) Latest Rain (In) Daily Rain (In) Daily Min Temp (°F) Daily Max Temp (°F) Daily ETo (in)
10/24/20 - 2100 52.1 75 44.5 48.6 SSW | 196 0.7 3.1 WSW | 238 0 0.00 0.00 39.9 72.9 0.116
10/24/20 - 2000 58.1 66 46.7 52.4 S | 176 2.8 6.1 S | 187 0 0.00 0.00 39.9 72.9 0.116
10/24/20 - 1900 61.6 60 47.4 54.0 S | 169 4.0 11.1 S | 190 4 0.00 0.00 39.9 72.9 0.116
10/24/20 - 1800 66.2 50 46.9 55.4 SSW | 199 6.2 12.1 S | 186 112 0.00 0.00 39.9 72.9 0.115
10/24/20 - 1700 69.9 38 43.0 54.6 SW | 222 6.8 12.5 SW | 232 293 0.00 0.00 39.9 72.9 0.111
10/24/20 - 1600 71.6 31 39.5 53.6 WSW | 246 7.2 14.8 W | 280 458 0.00 0.00 39.9 72.9 0.102
10/24/20 - 1500 72.3 27 36.2 52.6 WSW | 239 7.1 13.8 SSW | 206 584 0.00 0.00 39.9 72.9 0.087
10/24/20 - 1400 72.1 25 34.0 51.8 WSW | 254 7.0 13.2 WSW | 248 652 0.00 0.00 39.9 72.6 0.069
10/24/20 - 1300 71.7 26 35.2 52.0 W | 281 5.5 13.2 W | 267 661 0.00 0.00 39.9 72.5 0.050
10/24/20 - 1200 67.6 33 37.8 51.6 N | 8 2.4 11.1 N | 351 603 0.00 0.00 39.9 70.8 0.031
10/24/20 - 1100 63.5 43 40.5 51.4 N | 2 0.0 3.4 NNE | 13 487 0.00 0.00 39.9 66.0 0.016
10/24/20 - 1000 57.8 57 42.5 50.0 N | 0 0.0 0.0 SSW | 209 330 0.00 0.00 39.9 60.7 0.006
10/24/20 - 0900 45.3 80 39.6 42.8 N | 0 0.0 0.0 SSW | 194 134 0.00 0.00 39.9 51.5 0.001
10/24/20 - 0800 40.6 87 37.2 39.2 N | 0 0.0 0.0 S | 186 9 0.00 0.00 39.9 45.3 0.000
10/24/20 - 0700 40.9 86 36.9 39.3 S | 173 0.0 3.4 S | 178 0 0.00 0.00 40.3 45.3 0.000
10/24/20 - 0600 41.3 85 37.1 39.6 S | 187 0.3 3.8 S | 181 0 0.00 0.00 40.9 45.3 0.000
10/24/20 - 0500 41.5 83 36.7 39.6 SSW | 213 0.1 2.7 SW | 216 0 0.00 0.00 40.9 45.3 0.000
10/24/20 - 0400 43.6 80 37.9 41.2 N | 0 0.0 0.0 SSW | 200 0 0.00 0.00 42.6 45.3 0.000
10/24/20 - 0300 44.3 78 37.8 41.5 SSW | 206 0.0 3.8 SSW | 203 0 0.00 0.00 44.0 45.3 0.000
10/24/20 - 0200 44.7 76 37.5 41.6 S | 184 0.2 4.1 S | 175 0 0.00 0.00 44.1 45.3 0.000
10/24/20 - 0100 45.8 73 37.6 42.2 N | 0 0.0 0.0 SSW | 194 0 0.00 0.00 39.0 76.4 0.116
10/24/20 - 0000 46.8 71 37.7 42.8 N | 0 0.0 0.0 S | 191 0 0.00 0.00 39.0 76.4 0.116
10/23/20 - 2300 48.5 67 38.2 43.9 N | 0 0.0 0.0 SSW | 196 0 0.00 0.00 39.0 76.4 0.116
10/23/20 - 2200 50.6 63 38.7 45.1 S | 184 2.3 4.8 S | 185 0 0.00 0.00 39.0 76.4 0.116
10/23/20 - 2100 53.7 58 39.3 46.8 SSW | 193 2.0 3.8 S | 188 0 0.00 0.00 39.0 76.4 0.116
10/23/20 - 2000 61.8 45 40.2 50.6 S | 176 3.0 8.4 SSE | 164 0 0.00 0.00 39.0 76.4 0.116
10/23/20 - 1900 64.5 41 39.9 51.4 SSW | 199 1.8 6.4 SSW | 198 5 0.00 0.00 39.0 76.4 0.115
10/23/20 - 1800 71.3 33 40.4 53.9 SSW | 199 5.3 10.1 S | 187 117 0.00 0.00 39.0 76.4 0.115
10/23/20 - 1700 74.4 27 38.6 54.1 SSW | 213 6.1 12.5 S | 185 300 0.00 0.00 39.0 76.4 0.111
10/23/20 - 1600 75.5 25 37.6 54.1 SW | 234 5.3 10.1 WSW | 242 468 0.00 0.00 39.0 76.4 0.100
10/23/20 - 1500 75.8 24 36.5 53.8 WSW | 252 5.7 11.5 SW | 216 597 0.00 0.00 39.0 76.4 0.086
10/23/20 - 1400 74.3 22 33.5 52.3 WNW | 297 3.7 10.1 SSW | 212 666 0.00 0.00 39.0 76.2 0.067
10/23/20 - 1300 70.0 24 31.1 50.1 NNE | 15 3.3 9.1 NNE | 14 674 0.00 0.00 39.0 72.1 0.049
10/23/20 - 1200 66.3 25 29.7 48.4 NNE | 28 1.5 6.4 NNE | 27 617 0.00 0.00 39.0 68.0 0.031
10/23/20 - 1100 63.0 30 31.0 47.5 N | 2 0.2 3.8 NNE | 20 503 0.00 0.00 39.0 65.6 0.017
10/23/20 - 1000 58.0 38 32.6 46.0 N | 1 0.0 3.8 N | 11 345 0.00 0.00 39.0 61.5 0.007
10/23/20 - 0900 44.1 61 31.5 38.8 S | 189 0.4 4.1 S | 178 155 0.00 0.00 39.0 51.4 0.001
10/23/20 - 0800 39.3 70 30.5 35.8 N | 0 0.0 0.0 S | 188 9 0.00 0.00 39.0 46.3 0.000
10/23/20 - 0700 39.9 69 30.6 36.1 N | 0 0.0 0.0 SSW | 193 0 0.00 0.00 39.1 46.3 0.000
10/23/20 - 0600 40.7 68 31.0 36.8 N | 0 0.0 0.0 S | 187 0 0.00 0.00 40.1 46.3 0.000
10/23/20 - 0500 41.4 68 31.7 37.4 S | 184 0.0 2.7 S | 184 0 0.00 0.00 40.5 46.3 0.000
10/23/20 - 0400 42.9 67 32.6 38.6 N | 0 0.0 0.0 S | 173 0 0.00 0.00 42.1 46.3 0.000
10/23/20 - 0300 43.8 65 32.8 39.2 N | 0 0.0 0.0 S | 191 0 0.00 0.00 43.4 46.3 0.000
10/23/20 - 0200 44.8 62 32.8 39.7 N | 0 0.0 0.0 SE | 125 0 0.00 0.00 43.9 46.3 0.000
10/23/20 - 0100 46.6 57 32.2 40.4 SSE | 167 0.1 2.7 S | 182 0 0.00 0.00 43.3 81.1 0.107
10/23/20 - 0000 48.5 52 31.8 41.3 N | 0 0.0 0.0 S | 189 0 0.00 0.00 43.3 81.1 0.107
10/22/20 - 2300 50.7 46 30.6 41.9 S | 183 0.5 4.4 S | 191 0 0.00 0.00 43.3 81.1 0.107
10/22/20 - 2200 52.4 36 26.1 41.3 N | 0 0.0 0.0 SSE | 165 0 0.00 0.00 43.3 81.1 0.107
10/22/20 - 2100 54.0 28 21.6 40.8 N | 0 0.0 0.0 S | 187 0 0.00 0.00 43.3 81.1 0.107
Max 75.8 87 47.4 55.4 - 7.2 14.8 - 674 0.00 0.00 44.1 81.1 0.116
Avg 55.4 53 36.2 45.8 - 1.9 5.0 - 179 0.00 - - - -
Min 39.3 22 21.6 35.8 - 0.0 0.0 - 0 0.00 0.00 39.0 45.3 0.000
Total - - - - - - - - - 0.00 - - - -

Last 30 Days

Bell Hill-West

Daily Data | America/Los_Angeles
as of 10/24/20 9:45 PM PDT
Date Daily Max Temp (°F) Time of Max Temp Daily Min Temp (°F) Time of Min Temp Daily Rain (In) Monthly Rain (In) Seasonal Rainfall (In) Wind Spd (mph) Daily Max Wind (mph) Time of Max Wind Max Wind Dir (°) Daily ETo (in) 7 Day ETo (in) Daily Solar Rad (Cal/cm2) Dew Pt (°F) Max RH (%) Min RH (%) Hrs 70-85F (hrs) Hrs > 95F (hrs) Powdery Mildew Stress (pts) GDDs (DL) GDDs (Mx/Mn) Seas GDDs (DL) Seas GDDs (Smpl) Hrs <= 32F (hrs) Hrs <= 28F (hrs) Chilling <=45F (hrs) Chill Hrs 32-45F (hrs) Utah Chilling (Units) Degree Hrs (hrs) Bat Volt Min Day (V)
10/23/20 76.4 1456 39.0 0711 0.00 0.00 0.12 1.7 12.5 1626 S | 185 0.116 0.77 384 34.8 75 20 5.31 0.00 10 8.7 7.7 3,634 3,601 0.0 0.0 7.3 7.3 -5.0 52.6 12.1
10/22/20 81.1 1555 43.3 0704 0.00 0.00 0.12 0.6 12.1 1257 ESE | 108 0.107 0.76 391 29.2 86 6 7.30 0.00 20 10.8 12.2 3,626 3,593 0.0 0.0 2.7 2.7 3.0 95.3 12.1
10/21/20 86.6 1609 43.7 0713 0.00 0.00 0.12 0.4 12.1 1438 N | 1 0.108 0.77 389 40.9 80 17 4.90 0.00 0 13.9 15.2 3,615 3,581 0.0 0.0 1.3 1.3 1.0 137.8 12.2
10/20/20 90.4 1458 44.0 0709 0.00 0.00 0.12 0.1 7.8 1514 NNE | 25 0.102 0.78 393 38.5 80 12 2.92 0.00 0 14.8 17.2 3,601 3,566 0.0 0.0 1.1 1.1 0.5 153.8 12.1
10/19/20 89.2 1541 44.1 0719 0.00 0.00 0.12 0.4 9.1 1547 WSW | 246 0.106 0.80 395 38.6 73 16 4.02 0.00 0 14.9 16.6 3,586 3,549 0.0 0.0 0.6 0.6 1.0 157.4 12.2
10/18/20 90.9 1536 46.4 0723 0.00 0.00 0.12 0.5 12.1 1235 NNE | 12 0.118 0.81 405 36.3 64 13 2.65 0.00 0 16.0 18.7 3,571 3,532 0.0 0.0 0.0 0.0 1.0 178.0 12.1
10/17/20 95.0 1548 45.2 0707 0.00 0.00 0.12 0.2 11.8 1542 NNW | 328 0.112 0.80 413 32.2 59 8 3.30 0.01 0 17.5 20.1 3,555 3,513 0.0 0.0 0.0 0.0 0.5 206.6 12.0
10/16/20 93.5 1544 45.8 0744 0.00 0.00 0.12 0.1 8.4 1517 NNE | 25 0.111 0.76 425 30.5 57 8 2.43 0.00 0 17.6 19.7 3,538 3,493 0.0 0.0 0.0 0.0 0.5 198.2 12.1
10/15/20 94.0 1612 46.7 0728 0.00 0.00 0.12 0.2 13.5 1623 E | 83 0.113 0.76 417 36.2 76 9 2.54 0.00 10 18.0 20.4 3,520 3,473 0.0 0.0 0.0 0.0 0.0 202.3 12.2
10/14/20 87.7 1641 48.6 0739 0.00 0.00 0.12 0.1 9.5 1349 NE | 41 0.114 0.75 418 44.9 87 18 5.11 0.00 20 15.8 18.1 3,502 3,453 0.0 0.0 0.0 0.0 0.0 152.1 12.1
10/13/20 89.0 1522 46.4 0722 0.00 0.00 0.12 0.4 12.8 1416 NW | 325 0.123 0.78 421 46.3 94 20 3.33 0.00 30 16.2 17.7 3,486 3,435 0.0 0.0 0.0 0.0 0.0 168.4 12.1
10/12/20 84.7 1640 42.2 0711 0.00 0.00 0.12 0.2 11.1 1649 WSW | 250 0.118 0.78 436 43.1 89 17 8.18 0.00 40 12.8 13.4 3,470 3,417 0.0 0.0 2.9 2.9 1.0 112.7 12.1
10/11/20 78.7 1633 41.9 0722 0.00 0.00 0.12 0.2 10.5 1415 N | 0 0.112 0.80 438 42.4 99 20 5.78 0.00 20 9.8 10.3 3,457 3,404 0.0 0.0 4.0 4.0 1.5 63.3 12.0
10/10/20 68.9 1324 47.0 0101 0.00 0.00 0.12 2.0 14.5 1235 S | 189 0.069 0.83 225 52.0 94 61 0.00 0.00 30 8.5 8.0 3,448 3,394 0.0 0.0 0.0 0.0 1.5 13.3 12.1
10/9/20 76.5 1448 40.6 0704 0.00 0.00 0.12 1.1 15.2 1533 SSW | 202 0.114 0.94 408 44.8 92 26 6.28 0.00 40 10.6 8.5 3,439 3,386 0.0 0.0 5.9 5.9 0.5 61.1 12.2
10/8/20 79.5 1320 46.5 0059 0.00 0.00 0.12 1.4 14.5 1537 SSW | 212 0.104 0.92 333 42.4 85 17 6.32 0.00 20 10.2 13.0 3,429 3,377 0.0 0.0 0.0 0.0 2.0 63.3 12.2
10/7/20 86.8 1439 40.4 0750 0.00 0.00 0.12 0.5 13.8 1724 SSW | 205 0.139 0.90 480 32.5 65 7 2.94 0.00 0 13.5 13.6 3,418 3,364 0.0 0.0 4.5 4.5 1.5 141.5 12.2
10/6/20 90.8 1443 43.6 0730 0.00 0.00 0.12 0.3 12.8 1522 S | 178 0.129 0.89 460 34.3 70 9 2.92 0.00 0 15.0 17.2 3,405 3,350 0.0 0.0 2.0 2.0 1.0 165.4 12.1
10/5/20 90.4 1555 44.6 0713 0.00 0.00 0.12 0.5 11.1 1600 NNW | 346 0.129 0.88 444 35.5 71 11 2.70 0.00 10 15.8 17.5 3,390 3,333 0.0 0.0 0.5 0.5 1.0 175.3 12.2
10/4/20 92.0 1616 45.6 0727 0.00 0.00 0.12 0.3 11.8 1350 SW | 233 0.142 0.86 497 32.0 65 7 2.62 0.00 20 17.5 18.8 3,374 3,316 0.0 0.0 0.0 0.0 0.5 199.2 12.2
10/3/20 96.4 1404 48.9 0702 0.00 0.00 0.12 2.0 22.2 1513 WSW | 248 0.188 0.88 477 32.8 59 8 1.88 1.77 30 21.4 22.6 3,356 3,297 0.0 0.0 0.0 0.0 0.0 258.8 12.1
10/2/20 93.4 1647 53.7 0725 0.00 0.00 0.12 0.1 9.1 1645 NNW | 338 0.085 0.84 294 40.1 60 12 3.54 0.00 40 19.4 23.5 3,335 3,274 0.0 0.0 0.0 0.0 0.0 185.2 12.2
10/1/20 92.5 1548 54.9 0713 0.00 0.00 0.12 0.0 4.4 2048 S | 188 0.087 0.91 304 41.7 57 14 3.43 0.00 50 20.0 23.7 3,316 3,251 0.0 0.0 0.0 0.0 -14.5 187.4 12.1
9/30/20 97.7 1650 50.2 0647 0.00 0.00 0.12 0.2 11.1 1744 WSW | 254 0.129 0.99 457 38.9 66 10 2.62 2.46 60 21.5 24.0 3,296 3,227 0.0 0.0 0.0 0.0 -14.5 250.8 12.1
9/29/20 94.1 1538 50.7 0607 0.00 0.00 0.12 0.3 12.5 1359 N | 9 0.119 1.04 393 37.7 60 11 2.45 0.00 70 19.0 22.4 3,274 3,203 0.0 0.0 0.0 0.0 0.0 203.7 12.1
9/28/20 96.1 1529 56.9 0032 0.00 0.00 0.12 0.3 13.2 0114 E | 82 0.112 1.10 389 28.2 45 8 5.50 1.87 80 28.3 26.5 3,255 3,181 0.0 0.0 0.0 0.0 0.0 335.5 12.0
9/27/20 93.5 1630 47.7 0654 0.00 0.00 0.12 1.0 15.8 0052 NNE | 29 0.162 1.16 499 39.3 94 8 1.65 0.00 90 21.4 20.6 3,227 3,154 0.0 0.0 0.0 0.0 -16.0 254.2 12.2
9/26/20 83.1 1446 51.8 0712 0.00 0.00 0.12 1.2 15.2 1306 WSW | 248 0.141 1.13 435 50.1 89 29 9.67 0.00 100 16.5 17.4 3,205 3,134 0.0 0.0 0.0 0.0 0.0 134.6 12.1
9/25/20 82.9 1359 46.7 0650 0.00 0.00 0.12 1.4 15.2 1713 SW | 235 0.162 1.12 510 44.2 89 16 8.44 0.00 100 14.5 14.8 3,189 3,116 0.0 0.0 0.0 0.0 0.0 115.3 12.2
9/24/20 79.3 1545 50.3 0059 0.00 0.00 0.12 2.4 15.8 1218 SW | 225 0.167 1.12 512 51.5 96 34 8.94 0.00 80 14.7 14.8 3,174 3,101 0.0 0.0 0.0 0.0 1.0 100.5 12.1
Max 97.7 - 56.9 - 0.00 0.00 - 2.4 22.2 - - 0.188 - 512 52.0 99 61 9.67 2.46 100 28.3 26.5 - - 0.0 0.0 7.3 7.3 3.0 335.5 12.2
Avg - - - - - 0.00 - 0.7 - - - - - - 39.1 - - 4.32 0.20 - 15.8 17.1 - - 0.0 0.0 1.1 1.1 -1.0 - -
Min 68.9 - 39.0 - 0.00 0.00 - 0.0 4.4 - - 0.069 - 225 28.2 45 6 0.00 0.00 0 8.5 7.7 - - 0.0 0.0 0.0 0.0 -16.0 13.3 12.0
Total - - - - - - - - - - - - - - - - - 129.65 6.10 - 474.8 514.2 - - 0.0 0.0 32.9 32.9 -31.0 - -

Bell Hill-West Climate Summary

Current Yeaer

Current Year | Showing 1/1/20 - 10/23/20
as of 10/24/20 9:45 PM PDT
Temperature (°F) Precip (in) Days
Month Days Avg Max Avg Min Max Max Min Min Total Daily Min Temp < 28 Daily Min Temp < 32 Daily Max Temp > 90 Daily Max Temp > 100 Daily Rain > 0.01 Daily Rain > 0.1
Jan 2020 31 55 34.1 69.6 25.8 2.38 3 13 0 0 13 6
Feb 2020 29 66.1 30.9 76.7 23.5 0 4 17 0 0 0 0
Mar 2020 31 59.8 34 80.6 26.6 1.44 2 11 0 0 9 4
Apr 2020 30 70.4 41.2 85.7 27.8 0.84 1 4 0 0 4 3
May 2020 31 76.6 45 95.7 32.9 1.22 0 0 5 0 6 4
Jun 2020 30 85.9 51.7 102.7 36.9 0 0 0 12 1 0 0
Jul 2020 31 92.7 54.5 98.2 45.7 0 0 0 25 0 0 0
Aug 2020 31 93.8 57.2 102.3 49.2 0.12 0 0 27 3 2 0
Sep 2020 30 89.3 50.8 107.8 42.2 0 0 0 12 3 0 0
Oct 2020 23 87.1 45.3 96.4 39 0 0 0 11 0 0 0
Total 297 - - - - 6 10 45 92 7 34 17
Average 29.7 77.7 44.5 - - 0.6 1 4.5 9.2 0.7 3.4 1.7
Maximum 31 93.8 57.2 107.8 - 2.38 4 17 27 3 13 6
Minimum 23 55 30.9 - 23.5 0 0 0 0 0 0 0

Bell Hill-West Climate Summary

Last Year

Last Year | Showing 1/1/19 - 12/31/19
as of 10/24/20 9:45 PM PDT
Temperature (°F) Precip (in) Days
Month Days Avg Max Avg Min Max Max Min Min Total Daily Min Temp < 28 Daily Min Temp < 32 Daily Max Temp > 90 Daily Max Temp > 100 Daily Rain > 0.01 Daily Rain > 0.1
Jan 2019 31 56.8 36.2 71.5 24.5 10.09 3 8 0 0 12 11
Feb 2019 28 49.5 33.4 56.5 21.5 17.41 10 14 0 0 17 14
Mar 2019 31 58.8 36.4 74.6 26.8 4.4 1 6 0 0 12 10
Apr 2019 30 70.5 44 88.6 33.2 0.38 0 0 0 0 4 1
May 2019 31 72.1 44.7 85.2 36.4 2.59 0 0 0 0 6 5
Jun 2019 30 87.1 51.7 98.2 41.6 0 0 0 10 0 0 0
Jul 2019 31 89.5 54 100 47.1 0 0 0 14 0 0 0
Aug 2019 31 91.4 55.5 102 49.6 0 0 0 21 1 0 0
Sep 2019 30 82.5 47.9 97.2 34.3 0.1 0 0 9 0 2 0
Oct 2019 31 76.3 36.4 88.5 27.4 0.01 3 5 0 0 0 0
Nov 2019 30 68.5 34 81.6 23.2 1.55 4 11 0 0 3 3
Dec 2019 31 52.6 37.2 61.6 24.2 6.81 3 7 0 0 13 11
Total 365 - - - - 43.34 24 51 54 1 69 55
Average 30.4 71.3 42.6 - - 3.61 2 4.2 4.5 0.1 5.8 4.6
Maximum 31 91.4 55.5 102 - 17.41 10 14 21 1 17 14
Minimum 28 49.5 33.4 - 21.5 0 0 0 0 0 0 0
Calm: 46.4%
Calm: 33.8%